createdAt,value
2023-01-20T00:01:32.497Z,14.00
2023-01-20T00:04:00.191Z,12.07
2023-01-20T00:06:28.068Z,10.70
2023-01-20T00:08:57.582Z,12.67
2023-01-20T00:11:25.391Z,14.87
2023-01-20T00:16:47.440Z,13.20
2023-01-20T00:19:16.006Z,13.63
2023-01-20T00:21:46.367Z,11.83
2023-01-20T00:24:14.826Z,15.37
2023-01-20T00:26:42.332Z,18.37
2023-01-20T00:29:09.957Z,18.20
2023-01-20T00:31:37.693Z,13.67
2023-01-20T00:34:10.066Z,13.77
2023-01-20T00:36:37.738Z,16.93
2023-01-20T00:39:17.377Z,16.27
2023-01-20T00:41:44.499Z,20.97
2023-01-20T00:44:11.408Z,14.73
2023-01-20T00:46:42.774Z,18.23
2023-01-20T00:49:10.491Z,16.80
2023-01-20T00:51:39.115Z,18.90
2023-01-20T00:54:09.612Z,19.07
2023-01-20T00:56:36.250Z,20.23
2023-01-20T00:59:02.878Z,19.33
2023-01-20T01:01:29.508Z,20.10
2023-01-20T01:03:56.197Z,23.17
2023-01-20T01:06:23.636Z,22.23
2023-01-20T01:08:50.244Z,21.03
2023-01-20T01:11:16.807Z,25.03
2023-01-20T01:13:43.467Z,25.43
2023-01-20T01:16:15.191Z,21.20
2023-01-20T01:18:42.735Z,24.13
2023-01-20T01:21:11.674Z,23.73
2023-01-20T01:23:38.308Z,27.37
2023-01-20T01:26:05.233Z,25.53
2023-01-20T01:28:31.919Z,25.27
2023-01-20T01:31:06.344Z,28.00
2023-01-20T01:33:33.995Z,27.87
2023-01-20T01:36:02.973Z,32.27
2023-01-20T01:38:30.132Z,34.57
2023-01-20T01:40:56.945Z,33.50
2023-01-20T01:43:26.318Z,35.70
2023-01-20T01:45:53.133Z,38.67
2023-01-20T01:48:50.224Z,43.53
2023-01-20T01:51:24.566Z,41.83
2023-01-20T01:53:58.197Z,43.70
2023-01-20T01:56:27.424Z,45.67
2023-01-20T01:58:57.053Z,51.13
2023-01-20T02:01:25.442Z,51.70
2023-01-20T02:04:11.042Z,52.80
2023-01-20T02:06:48.136Z,49.07
2023-01-20T02:09:14.730Z,56.50
2023-01-20T02:11:48.387Z,56.77
2023-01-20T02:14:18.007Z,62.47
2023-01-20T02:16:53.747Z,50.50
2023-01-20T02:19:51.877Z,57.03
2023-01-20T02:22:47.325Z,62.27
2023-01-20T02:25:49.793Z,64.53
2023-01-20T02:28:25.491Z,67.23
2023-01-20T02:31:26.334Z,59.30
2023-01-20T02:34:20.980Z,65.00
2023-01-20T02:36:55.202Z,67.03
2023-01-20T02:40:00.021Z,63.43
2023-01-20T02:46:23.000Z,65.70
2023-01-20T02:49:22.840Z,62.37
2023-01-20T02:52:11.157Z,67.80
2023-01-20T02:55:08.882Z,68.97
2023-01-20T02:58:19.236Z,57.87
2023-01-20T03:00:58.503Z,65.10
2023-01-20T03:03:51.235Z,65.10
2023-01-20T03:06:22.449Z,63.60
2023-01-20T03:09:04.302Z,56.00
2023-01-20T03:11:41.266Z,63.17
2023-01-20T03:14:15.114Z,63.67
2023-01-20T03:16:42.600Z,55.07
2023-01-20T03:19:10.650Z,71.90
2023-01-20T03:21:37.358Z,65.20
2023-01-20T03:24:10.915Z,56.97
2023-01-20T03:26:38.714Z,58.77
2023-01-20T03:29:11.790Z,55.57
2023-01-20T03:32:02.140Z,58.60
2023-01-20T03:34:40.022Z,53.47
2023-01-20T03:37:14.300Z,54.70
2023-01-20T03:39:41.031Z,57.57
2023-01-20T03:42:26.065Z,60.30
2023-01-20T03:45:07.967Z,60.03
2023-01-20T03:48:06.707Z,56.10
2023-01-20T03:51:10.030Z,55.57
2023-01-20T03:54:07.871Z,54.77
2023-01-20T03:57:22.633Z,48.10
2023-01-20T03:59:52.335Z,50.80
2023-01-20T04:02:25.121Z,48.50
2023-01-20T04:04:56.676Z,55.13
2023-01-20T04:07:26.151Z,51.27
2023-01-20T04:09:56.886Z,46.00
2023-01-20T04:12:23.742Z,48.43
2023-01-20T04:14:50.383Z,45.40
2023-01-20T04:17:29.721Z,48.57
2023-01-20T04:20:00.160Z,45.03
2023-01-20T04:22:51.649Z,46.60
2023-01-20T04:25:31.675Z,43.20
2023-01-20T04:28:01.255Z,45.40
2023-01-20T04:30:37.025Z,44.23
2023-01-20T04:33:09.963Z,42.57
2023-01-20T04:35:36.588Z,42.50
2023-01-20T04:38:03.227Z,43.03
2023-01-20T04:40:30.113Z,37.53
2023-01-20T04:42:56.677Z,41.10
2023-01-20T04:45:23.433Z,36.30
2023-01-20T04:47:50.111Z,40.47
2023-01-20T04:50:20.108Z,36.50
2023-01-20T04:52:46.949Z,38.47
2023-01-20T04:55:13.936Z,35.20
2023-01-20T04:57:40.691Z,37.90
2023-01-20T05:00:18.508Z,38.13
2023-01-20T05:02:45.457Z,36.53
2023-01-20T05:05:12.244Z,34.67
2023-01-20T05:07:38.838Z,35.27
2023-01-20T05:10:06.044Z,34.87
2023-01-20T05:12:32.677Z,32.80
2023-01-20T05:14:59.275Z,33.00
2023-01-20T05:17:38.295Z,30.20
2023-01-20T05:20:05.284Z,23.63
2023-01-20T05:22:33.225Z,28.30
2023-01-20T05:25:00.361Z,32.33
2023-01-20T05:27:27.005Z,33.73
2023-01-20T05:29:53.777Z,30.63
2023-01-20T05:32:23.480Z,32.50
2023-01-20T05:34:50.048Z,30.20
2023-01-20T05:37:17.859Z,30.97
2023-01-20T05:39:44.468Z,31.40
2023-01-20T05:42:11.082Z,30.93
2023-01-20T05:44:37.814Z,29.17
2023-01-20T05:47:04.436Z,30.43
2023-01-20T05:49:31.037Z,29.20
2023-01-20T05:51:57.606Z,29.53
2023-01-20T05:54:24.654Z,27.40
2023-01-20T05:56:51.198Z,29.27
2023-01-20T05:59:17.967Z,26.20
2023-01-20T06:01:44.588Z,28.63
2023-01-20T06:04:11.115Z,28.20
2023-01-20T06:06:38.088Z,30.30
2023-01-20T06:09:04.596Z,28.37
2023-01-20T06:11:31.127Z,29.13
2023-01-20T06:13:58.104Z,31.23
2023-01-20T06:16:24.853Z,28.97
2023-01-20T06:18:51.483Z,30.20
2023-01-20T06:21:18.133Z,28.43
2023-01-20T06:23:44.744Z,32.93
2023-01-20T06:26:14.242Z,27.40
2023-01-20T06:28:42.278Z,27.43
2023-01-20T06:31:16.292Z,28.10
2023-01-20T06:33:43.742Z,26.63
2023-01-20T06:36:14.030Z,28.43
2023-01-20T06:38:40.957Z,28.77
2023-01-20T06:41:11.444Z,29.63
2023-01-20T06:43:40.725Z,28.43
2023-01-20T06:46:12.194Z,27.60
2023-01-20T06:48:39.999Z,28.53
2023-01-20T06:51:15.251Z,29.50
2023-01-20T06:53:43.459Z,28.97
2023-01-20T06:56:14.263Z,27.93
2023-01-20T06:58:41.578Z,30.67
2023-01-20T07:01:12.257Z,29.77
2023-01-20T07:03:41.257Z,32.30
2023-01-20T07:06:16.353Z,31.73
2023-01-20T07:08:45.877Z,28.07
2023-01-20T07:11:12.509Z,28.60
2023-01-20T07:13:40.784Z,30.07
2023-01-20T07:16:12.016Z,30.43
2023-01-20T07:18:40.647Z,29.50
2023-01-20T07:21:08.520Z,28.20
2023-01-20T07:23:35.138Z,28.87
2023-01-20T07:26:05.072Z,28.80
2023-01-20T07:28:33.040Z,28.27
2023-01-20T07:31:10.489Z,30.97
2023-01-20T07:33:38.091Z,29.33
2023-01-20T07:36:09.898Z,29.13
2023-01-20T07:38:38.066Z,28.10
2023-01-20T07:41:08.382Z,26.00
2023-01-20T07:43:35.496Z,29.87
2023-01-20T07:46:04.053Z,26.87
2023-01-20T07:48:34.682Z,30.83
2023-01-20T07:51:07.938Z,25.87
2023-01-20T07:53:41.340Z,29.67
2023-01-20T07:56:11.384Z,25.60
2023-01-20T07:58:38.721Z,26.20
2023-01-20T08:01:13.972Z,28.60
2023-01-20T08:03:40.892Z,26.90
2023-01-20T08:06:11.112Z,28.13
2023-01-20T08:08:38.303Z,27.93
2023-01-20T08:11:06.672Z,26.80
2023-01-20T08:13:33.741Z,30.63
2023-01-20T08:16:04.947Z,26.80
2023-01-20T08:18:34.071Z,26.87
2023-01-20T08:21:06.234Z,27.23
2023-01-20T08:23:37.219Z,24.90
2023-01-20T08:26:06.614Z,24.97
2023-01-20T08:28:36.028Z,24.40
2023-01-20T08:31:08.136Z,25.63
2023-01-20T08:33:35.086Z,27.03
2023-01-20T08:36:08.084Z,26.87
2023-01-20T08:38:35.731Z,28.33
2023-01-20T08:41:07.433Z,27.27
2023-01-20T08:43:34.896Z,28.43
2023-01-20T08:46:04.104Z,28.37
2023-01-20T08:48:30.742Z,26.23
2023-01-20T08:50:58.967Z,26.87
2023-01-20T08:53:26.168Z,27.77
2023-01-20T08:55:58.853Z,24.70
2023-01-20T08:58:26.100Z,26.97
2023-01-20T09:00:54.356Z,28.00
2023-01-20T09:03:22.159Z,24.90
2023-01-20T09:05:49.364Z,27.57
2023-01-20T09:08:20.032Z,27.33
2023-01-20T09:10:46.838Z,25.77
2023-01-20T09:13:13.618Z,27.30
2023-01-20T09:15:40.684Z,29.27
2023-01-20T09:18:08.349Z,24.97
2023-01-20T09:20:35.629Z,28.70
2023-01-20T09:23:03.284Z,34.53
2023-01-20T09:25:33.247Z,31.70
2023-01-20T09:28:02.914Z,30.87
2023-01-20T09:30:30.330Z,36.40
2023-01-20T09:33:00.117Z,27.80
2023-01-20T09:36:07.406Z,26.80
2023-01-20T09:42:05.463Z,32.93
2023-01-20T09:45:03.547Z,31.80
2023-01-20T09:47:37.303Z,33.70
2023-01-20T09:51:00.964Z,29.57
2023-01-20T09:53:52.740Z,31.07
2023-01-20T09:56:22.832Z,26.77
2023-01-20T09:58:58.564Z,25.27
2023-01-20T10:01:33.158Z,22.73
2023-01-20T10:04:14.307Z,19.07
2023-01-20T10:06:54.206Z,29.87
2023-01-20T10:09:33.858Z,43.33
2023-01-20T10:12:16.082Z,29.13
2023-01-20T10:14:48.832Z,58.53
2023-01-20T10:17:25.064Z,55.37
2023-01-20T10:20:13.081Z,62.37
2023-01-20T10:22:50.703Z,106.17
2023-01-20T10:25:38.483Z,130.97
2023-01-20T10:28:31.494Z,29.97
2023-01-20T10:31:02.513Z,107.97
2023-01-20T10:33:43.260Z,38.97
2023-01-20T10:36:19.258Z,26.15
2023-01-20T10:38:59.145Z,19.83
2023-01-20T10:41:39.161Z,21.20
2023-01-20T10:44:14.534Z,26.43
2023-01-20T10:47:14.456Z,23.57
2023-01-20T10:50:23.445Z,21.80
2023-01-20T10:53:13.649Z,19.97
2023-01-20T10:55:53.640Z,23.87
2023-01-20T10:58:29.204Z,19.57
2023-01-20T11:00:57.764Z,19.87
2023-01-20T11:03:26.085Z,48.43
2023-01-20T11:05:53.024Z,24.10
2023-01-20T11:08:25.472Z,37.60
2023-01-20T11:10:56.479Z,30.17
2023-01-20T11:13:23.498Z,24.07
2023-01-20T11:15:57.723Z,25.90
2023-01-20T11:18:30.885Z,27.17
2023-01-20T11:21:04.314Z,19.87
2023-01-20T11:23:52.792Z,19.38
2023-01-20T11:26:28.455Z,20.58
2023-01-20T11:29:22.916Z,19.17
2023-01-20T11:31:56.398Z,19.08
2023-01-20T11:34:36.598Z,22.75
2023-01-20T11:37:06.382Z,21.98
2023-01-20T11:39:42.241Z,21.33
2023-01-20T11:42:15.843Z,18.77
2023-01-20T11:44:46.607Z,19.90
2023-01-20T11:47:26.559Z,21.80
2023-01-20T11:50:08.983Z,20.63
2023-01-20T11:52:46.249Z,20.50
2023-01-20T11:55:12.866Z,20.57
2023-01-20T11:58:01.678Z,22.92
2023-01-20T12:00:31.667Z,21.42
2023-01-20T12:03:17.235Z,18.73
2023-01-20T12:05:59.350Z,26.58
2023-01-20T12:08:51.174Z,32.25
2023-01-20T12:11:40.196Z,20.63
2023-01-20T12:14:29.810Z,22.57
2023-01-20T12:17:15.127Z,24.57
2023-01-20T12:19:58.862Z,22.27
2023-01-20T12:22:44.855Z,22.67
2023-01-20T12:25:19.923Z,22.08
2023-01-20T12:28:04.570Z,24.08
2023-01-20T12:30:51.631Z,21.13
2023-01-20T12:37:02.931Z,24.58
2023-01-20T12:39:45.181Z,24.33
2023-01-20T12:42:52.687Z,25.27
2023-01-20T12:45:48.451Z,24.42
2023-01-20T12:48:39.102Z,23.15
2023-01-20T12:51:28.918Z,24.10
2023-01-20T12:54:18.972Z,29.20
2023-01-20T12:57:13.692Z,23.60
2023-01-20T13:00:16.232Z,28.20
2023-01-20T13:03:11.650Z,25.97
2023-01-20T13:05:49.911Z,25.67
2023-01-20T13:08:38.442Z,24.37
2023-01-20T13:11:15.450Z,34.28
2023-01-20T13:14:06.607Z,26.55
2023-01-20T13:16:52.130Z,22.80
2023-01-20T13:19:41.975Z,25.08
2023-01-20T13:22:13.069Z,26.00
2023-01-20T13:24:44.928Z,24.13
2023-01-20T13:27:13.787Z,22.92
2023-01-20T13:29:50.398Z,23.92
2023-01-20T13:32:45.968Z,21.33
2023-01-20T13:35:30.383Z,23.45
2023-01-20T13:38:02.786Z,88.07
2023-01-20T13:40:35.594Z,28.52
2023-01-20T13:43:22.159Z,23.53
2023-01-20T13:46:07.238Z,24.05
2023-01-20T13:48:39.115Z,60.17
2023-01-20T13:51:27.932Z,26.27
2023-01-20T13:53:56.884Z,27.15
2023-01-20T13:56:33.182Z,22.38
2023-01-20T13:59:00.161Z,34.72
2023-01-20T14:01:28.480Z,44.95
2023-01-20T14:04:16.315Z,30.40
2023-01-20T14:06:48.177Z,19.00
2023-01-20T14:09:23.284Z,14.57
2023-01-20T14:11:52.120Z,17.77
2023-01-20T14:14:21.418Z,16.17
2023-01-20T14:16:48.266Z,18.55
2023-01-20T14:21:58.124Z,17.05
2023-01-20T14:24:43.540Z,16.60
2023-01-20T14:27:28.280Z,16.10
2023-01-20T14:29:56.777Z,18.48
2023-01-20T14:32:34.474Z,17.88
2023-01-20T14:35:02.206Z,17.33
2023-01-20T14:37:37.565Z,18.23
2023-01-20T14:40:10.305Z,16.48
2023-01-20T14:42:38.689Z,16.37
2023-01-20T14:45:23.567Z,15.33
2023-01-20T14:47:51.703Z,17.83
2023-01-20T14:50:19.588Z,17.93
2023-01-20T14:52:46.701Z,18.23
2023-01-20T14:55:35.887Z,20.87
2023-01-20T14:58:15.744Z,14.63
2023-01-20T15:00:44.615Z,18.57
2023-01-20T15:03:26.218Z,15.13
2023-01-20T15:05:59.656Z,15.13
2023-01-20T15:08:32.032Z,14.97
2023-01-20T15:11:20.913Z,17.87
2023-01-20T15:14:04.794Z,17.97
2023-01-20T15:16:44.098Z,18.47
2023-01-20T15:19:13.949Z,17.03
2023-01-20T15:21:41.687Z,17.90
2023-01-20T15:24:20.613Z,14.43
2023-01-20T15:26:52.598Z,18.03
2023-01-20T15:29:23.602Z,17.57
2023-01-20T15:31:56.075Z,22.90
2023-01-20T15:34:23.196Z,15.67
2023-01-20T15:36:51.517Z,20.40
2023-01-20T15:39:29.419Z,15.73
2023-01-20T15:42:01.502Z,15.53
2023-01-20T15:44:29.932Z,16.17
2023-01-20T15:46:57.672Z,18.07
2023-01-20T15:49:25.264Z,17.10
2023-01-20T15:51:52.395Z,18.23
2023-01-20T15:54:19.234Z,19.20
2023-01-20T15:56:46.322Z,20.77
2023-01-20T15:59:14.618Z,22.47
2023-01-20T16:01:41.411Z,21.73
2023-01-20T16:04:09.292Z,18.23
2023-01-20T16:06:37.483Z,19.47
2023-01-20T16:09:14.225Z,17.77
2023-01-20T16:11:42.337Z,21.40
2023-01-20T16:14:09.041Z,24.70
2023-01-20T16:16:42.039Z,23.47
2023-01-20T16:19:14.777Z,27.23
2023-01-20T16:21:43.126Z,27.77
2023-01-20T16:24:12.226Z,25.00
2023-01-20T16:26:39.025Z,24.67
2023-01-20T16:29:05.630Z,25.37
2023-01-20T16:31:33.392Z,25.37
2023-01-20T16:34:00.101Z,27.33
2023-01-20T16:36:26.750Z,28.87
2023-01-20T16:38:54.046Z,25.60
2023-01-20T16:41:23.430Z,25.27
2023-01-20T16:43:51.929Z,28.93
2023-01-20T16:46:24.471Z,31.00
2023-01-20T16:48:53.381Z,28.53
2023-01-20T16:51:25.715Z,30.00
2023-01-20T16:53:55.243Z,27.63
2023-01-20T16:56:25.646Z,30.70
2023-01-20T16:59:02.977Z,29.63
2023-01-20T17:01:30.500Z,29.07
2023-01-20T17:03:59.278Z,33.83
2023-01-20T17:06:31.594Z,30.57
2023-01-20T17:09:00.229Z,29.27
2023-01-20T17:11:30.483Z,30.67
2023-01-20T17:13:58.487Z,32.43
2023-01-20T17:16:28.455Z,33.03
2023-01-20T17:18:58.523Z,31.43
2023-01-20T17:21:27.587Z,35.60
2023-01-20T17:23:56.547Z,36.47
2023-01-20T17:26:24.091Z,38.40
2023-01-20T17:28:58.091Z,36.83
2023-01-20T17:31:25.010Z,33.73
2023-01-20T17:33:53.680Z,38.23
2023-01-20T17:36:20.587Z,36.60
2023-01-20T17:38:47.684Z,35.10
2023-01-20T17:41:15.013Z,39.13
2023-01-20T17:43:44.328Z,37.57
2023-01-20T17:46:22.611Z,37.20
2023-01-20T17:48:50.445Z,39.27
2023-01-20T17:51:20.320Z,39.37
2023-01-20T17:53:48.012Z,39.20
2023-01-20T17:56:15.960Z,40.03
2023-01-20T17:58:43.951Z,41.77
2023-01-20T18:01:26.034Z,42.47
2023-01-20T18:03:58.934Z,39.53
2023-01-20T18:06:27.653Z,40.03
2023-01-20T18:08:57.708Z,41.00
2023-01-20T18:11:26.973Z,40.53
2023-01-20T18:13:56.256Z,47.00
2023-01-20T18:16:28.870Z,44.07
2023-01-20T18:18:58.787Z,45.10
2023-01-20T18:21:29.135Z,47.60
2023-01-20T18:23:57.141Z,43.77
2023-01-20T18:26:25.948Z,50.37
2023-01-20T18:28:57.052Z,44.27
2023-01-20T18:31:25.427Z,43.60
2023-01-20T18:33:57.825Z,47.17
2023-01-20T18:36:38.034Z,39.70
2023-01-20T18:44:29.323Z,46.00
2023-01-20T18:46:55.936Z,45.20
2023-01-20T18:49:22.521Z,48.40
2023-01-20T18:51:49.136Z,42.43
2023-01-20T18:54:18.032Z,44.73
2023-01-20T18:56:45.100Z,48.47
2023-01-20T18:59:12.390Z,39.63
2023-01-20T19:01:40.581Z,46.23
2023-01-20T19:04:12.367Z,45.20
2023-01-20T19:06:44.638Z,46.90
2023-01-20T19:09:16.407Z,47.27
2023-01-20T19:11:47.243Z,47.30
2023-01-20T19:14:14.983Z,50.20
2023-01-20T19:16:45.697Z,58.40
2023-01-20T19:19:13.466Z,55.40
2023-01-20T19:21:45.789Z,55.47
2023-01-20T19:24:21.925Z,49.87
2023-01-20T19:26:51.210Z,52.70
2023-01-20T19:29:18.729Z,53.50
2023-01-20T19:31:45.742Z,48.80
2023-01-20T19:34:19.406Z,51.83
2023-01-20T19:36:46.390Z,52.33
2023-01-20T19:39:16.267Z,45.10
2023-01-20T19:41:44.883Z,45.17
2023-01-20T19:44:14.291Z,44.77
2023-01-20T19:46:41.295Z,44.67
2023-01-20T19:49:12.119Z,39.60
2023-01-20T19:51:39.389Z,46.23
2023-01-20T19:54:07.967Z,42.77
2023-01-20T19:56:36.583Z,43.13
2023-01-20T19:59:05.999Z,41.33
2023-01-20T20:01:35.850Z,45.67
2023-01-20T20:04:13.789Z,37.33
2023-01-20T20:06:45.681Z,41.77
2023-01-20T20:09:15.915Z,41.83
2023-01-20T20:11:46.305Z,39.30
2023-01-20T20:14:20.254Z,41.33
2023-01-20T20:16:49.361Z,38.20
2023-01-20T20:19:18.559Z,38.53
2023-01-20T20:21:46.148Z,39.47
2023-01-20T20:24:19.003Z,39.67
2023-01-20T20:26:46.958Z,39.47
2023-01-20T20:29:15.678Z,38.73
2023-01-20T20:31:45.829Z,39.13
2023-01-20T20:34:18.290Z,34.60
2023-01-20T20:36:50.434Z,36.97
2023-01-20T20:39:19.271Z,36.40
2023-01-20T20:41:50.638Z,36.13
2023-01-20T20:44:19.422Z,44.17
2023-01-20T20:46:49.568Z,37.83
2023-01-20T20:49:19.150Z,40.47
2023-01-20T20:51:46.752Z,40.60
2023-01-20T20:54:20.030Z,39.23
2023-01-20T20:56:46.786Z,38.13
2023-01-20T20:59:14.053Z,37.33
2023-01-20T21:01:41.809Z,39.80
2023-01-20T21:04:09.838Z,41.00
2023-01-20T21:06:41.427Z,38.90
2023-01-20T21:09:09.125Z,40.67
2023-01-20T21:11:38.304Z,37.77
2023-01-20T21:14:05.224Z,37.07
2023-01-20T21:16:31.962Z,40.53
2023-01-20T21:19:01.279Z,39.23
2023-01-20T21:21:31.223Z,42.80
2023-01-20T21:24:03.314Z,41.83
2023-01-20T21:26:30.951Z,41.43
2023-01-20T21:29:01.850Z,43.33
2023-01-20T21:31:34.246Z,42.67
2023-01-20T21:34:12.761Z,42.13
2023-01-20T21:36:46.972Z,43.50
2023-01-20T21:39:24.181Z,43.80
2023-01-20T21:41:50.830Z,43.93
2023-01-20T21:44:32.019Z,44.40
2023-01-20T21:47:15.513Z,44.50
2023-01-20T21:50:02.207Z,46.80
2023-01-20T21:52:54.161Z,46.93
2023-01-20T21:55:21.872Z,48.43
2023-01-20T21:57:51.287Z,45.43
2023-01-20T22:00:18.774Z,45.13
2023-01-20T22:02:45.774Z,47.07
2023-01-20T22:05:13.415Z,48.00
2023-01-20T22:07:40.673Z,55.23
2023-01-20T22:10:08.179Z,52.73
2023-01-20T22:12:35.574Z,51.07
2023-01-20T22:15:03.365Z,53.83
2023-01-20T22:17:30.989Z,53.10
2023-01-20T22:19:57.789Z,54.00
2023-01-20T22:22:24.646Z,54.20
2023-01-20T22:24:53.886Z,60.67
2023-01-20T22:27:21.544Z,59.03
2023-01-20T22:29:49.141Z,56.37
2023-01-20T22:32:16.006Z,65.33
2023-01-20T22:34:53.467Z,65.63
2023-01-20T22:37:20.472Z,65.43
2023-01-20T22:39:48.872Z,63.47
2023-01-20T22:42:15.922Z,63.23
2023-01-20T22:44:42.528Z,67.47
2023-01-20T22:47:10.844Z,68.97
2023-01-20T22:49:37.423Z,67.50
2023-01-20T22:52:04.122Z,70.80
2023-01-20T22:54:30.846Z,72.57
2023-01-20T22:56:57.758Z,73.17
2023-01-20T22:59:25.200Z,74.70
2023-01-20T23:01:51.996Z,73.53
2023-01-20T23:04:18.555Z,77.07
2023-01-20T23:06:45.844Z,70.60
2023-01-20T23:09:14.576Z,77.57
2023-01-20T23:11:41.414Z,77.20
2023-01-20T23:14:12.844Z,83.73
2023-01-20T23:16:40.585Z,77.87
2023-01-20T23:19:08.516Z,76.97
2023-01-20T23:21:36.097Z,73.67
2023-01-20T23:24:02.884Z,81.03
2023-01-20T23:26:30.677Z,75.87
2023-01-20T23:28:59.646Z,71.13
2023-01-20T23:31:28.985Z,78.93
2023-01-20T23:33:55.650Z,69.43
2023-01-20T23:36:24.935Z,70.37
2023-01-20T23:38:54.760Z,72.70
2023-01-20T23:41:21.996Z,77.43
2023-01-20T23:43:49.813Z,68.23
2023-01-20T23:46:17.348Z,68.10
2023-01-20T23:48:46.691Z,62.47
2023-01-20T23:51:14.297Z,60.70
2023-01-20T23:53:41.614Z,55.83
2023-01-20T23:56:16.217Z,54.93
2023-01-20T23:58:43.771Z,61.20
